sensor_id;sensor_type;location;lat;lon;timestamp;pressure;altitude;pressure_sealevel;temperature;humidity
76074;BME280;64776;42.636;24.358;2023-03-01T00:00:40;90573.53;;;3.63;87.11
76074;BME280;64776;42.636;24.358;2023-03-01T00:03:41;90552.00;;;3.65;87.03
76074;BME280;64776;42.636;24.358;2023-03-01T00:06:42;90555.38;;;3.65;87.52
76074;BME280;64776;42.636;24.358;2023-03-01T00:09:44;90550.97;;;3.62;86.98
76074;BME280;64776;42.636;24.358;2023-03-01T00:12:44;90549.16;;;3.59;86.75
76074;BME280;64776;42.636;24.358;2023-03-01T00:15:47;90556.28;;;3.46;87.53
76074;BME280;64776;42.636;24.358;2023-03-01T00:18:48;90554.09;;;3.57;87.25
76074;BME280;64776;42.636;24.358;2023-03-01T00:21:49;90555.16;;;3.60;87.12
76074;BME280;64776;42.636;24.358;2023-03-01T00:24:49;90554.94;;;3.54;87.74
76074;BME280;64776;42.636;24.358;2023-03-01T00:27:50;90549.75;;;3.51;87.16
76074;BME280;64776;42.636;24.358;2023-03-01T00:30:52;90542.47;;;3.55;87.76
76074;BME280;64776;42.636;24.358;2023-03-01T00:33:54;90534.25;;;3.53;87.17
76074;BME280;64776;42.636;24.358;2023-03-01T00:36:54;90533.75;;;3.58;87.00
76074;BME280;64776;42.636;24.358;2023-03-01T00:39:55;90529.41;;;3.51;87.19
76074;BME280;64776;42.636;24.358;2023-03-01T00:42:56;90520.50;;;3.45;87.47
76074;BME280;64776;42.636;24.358;2023-03-01T00:46:02;90524.66;;;3.46;87.98
76074;BME280;64776;42.636;24.358;2023-03-01T00:49:03;90524.72;;;3.43;88.23
76074;BME280;64776;42.636;24.358;2023-03-01T00:52:04;90520.69;;;3.38;88.13
76074;BME280;64776;42.636;24.358;2023-03-01T00:55:06;90523.84;;;3.33;88.33
76074;BME280;64776;42.636;24.358;2023-03-01T00:58:07;90518.75;;;3.26;88.64
76074;BME280;64776;42.636;24.358;2023-03-01T01:01:11;90521.00;;;3.27;89.05
76074;BME280;64776;42.636;24.358;2023-03-01T01:04:13;90514.34;;;3.23;89.52
76074;BME280;64776;42.636;24.358;2023-03-01T01:07:14;90516.97;;;3.23;88.94
76074;BME280;64776;42.636;24.358;2023-03-01T01:10:15;90507.28;;;3.33;88.59
76074;BME280;64776;42.636;24.358;2023-03-01T01:13:16;90509.94;;;3.33;88.70
76074;BME280;64776;42.636;24.358;2023-03-01T01:16:20;90506.16;;;3.34;87.95
76074;BME280;64776;42.636;24.358;2023-03-01T01:19:21;90499.16;;;3.27;88.99
76074;BME280;64776;42.636;24.358;2023-03-01T01:22:22;90499.25;;;3.23;89.35
76074;BME280;64776;42.636;24.358;2023-03-01T01:25:23;90504.84;;;3.25;89.33
76074;BME280;64776;42.636;24.358;2023-03-01T01:28:23;90494.00;;;3.23;89.41
76074;BME280;64776;42.636;24.358;2023-03-01T01:31:26;90501.22;;;3.19;89.19
76074;BME280;64776;42.636;24.358;2023-03-01T01:34:27;90499.91;;;3.27;89.57
76074;BME280;64776;42.636;24.358;2023-03-01T01:37:28;90510.31;;;3.18;89.47
76074;BME280;64776;42.636;24.358;2023-03-01T01:40:29;90501.53;;;3.21;89.65
76074;BME280;64776;42.636;24.358;2023-03-01T01:43:33;90507.16;;;3.23;89.67
76074;BME280;64776;42.636;24.358;2023-03-01T01:46:37;90508.47;;;3.32;89.80
76074;BME280;64776;42.636;24.358;2023-03-01T01:49:42;90512.03;;;3.25;89.39
76074;BME280;64776;42.636;24.358;2023-03-01T01:52:45;90514.22;;;3.26;89.73
76074;BME280;64776;42.636;24.358;2023-03-01T01:55:52;90513.09;;;3.27;89.61
76074;BME280;64776;42.636;24.358;2023-03-01T01:58:54;90508.63;;;3.24;89.60
76074;BME280;64776;42.636;24.358;2023-03-01T02:01:59;90506.75;;;3.25;89.63
76074;BME280;64776;42.636;24.358;2023-03-01T02:05:06;90504.84;;;3.25;89.64
76074;BME280;64776;42.636;24.358;2023-03-01T02:08:11;90504.09;;;3.25;89.18
76074;BME280;64776;42.636;24.358;2023-03-01T02:11:13;90499.97;;;3.24;89.40
76074;BME280;64776;42.636;24.358;2023-03-01T02:14:15;90502.41;;;3.18;89.11
76074;BME280;64776;42.636;24.358;2023-03-01T02:17:18;90501.47;;;3.25;89.43
76074;BME280;64776;42.636;24.358;2023-03-01T02:20:23;90495.13;;;3.22;88.82
76074;BME280;64776;42.636;24.358;2023-03-01T02:23:27;90494.53;;;3.31;88.89
76074;BME280;64776;42.636;24.358;2023-03-01T02:26:34;90501.25;;;3.32;88.75
76074;BME280;64776;42.636;24.358;2023-03-01T02:29:39;90491.56;;;3.29;88.42
76074;BME280;64776;42.636;24.358;2023-03-01T02:32:40;90496.09;;;3.28;87.96
76074;BME280;64776;42.636;24.358;2023-03-01T02:35:41;90488.78;;;3.20;88.81
76074;BME280;64776;42.636;24.358;2023-03-01T02:38:43;90486.91;;;3.20;89.42
76074;BME280;64776;42.636;24.358;2023-03-01T02:41:47;90488.25;;;3.12;88.65
76074;BME280;64776;42.636;24.358;2023-03-01T02:44:50;90487.91;;;3.10;89.24
76074;BME280;64776;42.636;24.358;2023-03-01T02:47:53;90486.84;;;3.08;88.97
76074;BME280;64776;42.636;24.358;2023-03-01T02:51:04;90487.38;;;3.03;89.72
76074;BME280;64776;42.636;24.358;2023-03-01T02:54:13;90490.94;;;2.96;89.46
76074;BME280;64776;42.636;24.358;2023-03-01T02:57:17;90487.00;;;2.88;89.90
76074;BME280;64776;42.636;24.358;2023-03-01T03:00:23;90482.53;;;2.85;90.14
76074;BME280;64776;42.636;24.358;2023-03-01T03:03:25;90485.44;;;2.75;90.04
76074;BME280;64776;42.636;24.358;2023-03-01T03:06:25;90484.69;;;2.74;90.71
76074;BME280;64776;42.636;24.358;2023-03-01T03:09:26;90486.84;;;2.79;90.14
76074;BME280;64776;42.636;24.358;2023-03-01T03:12:27;90487.59;;;2.80;90.37
76074;BME280;64776;42.636;24.358;2023-03-01T03:15:30;90491.28;;;2.82;90.45
76074;BME280;64776;42.636;24.358;2023-03-01T03:18:31;90479.16;;;2.85;90.54
76074;BME280;64776;42.636;24.358;2023-03-01T03:21:32;90477.75;;;2.96;89.94
76074;BME280;64776;42.636;24.358;2023-03-01T03:24:33;90477.88;;;3.05;89.63
76074;BME280;64776;42.636;24.358;2023-03-01T03:27:33;90474.75;;;3.10;89.27
76074;BME280;64776;42.636;24.358;2023-03-01T03:30:37;90474.53;;;3.17;89.21
76074;BME280;64776;42.636;24.358;2023-03-01T03:33:38;90471.47;;;3.06;89.06
76074;BME280;64776;42.636;24.358;2023-03-01T03:36:38;90465.59;;;2.86;89.64
76074;BME280;64776;42.636;24.358;2023-03-01T03:39:39;90469.47;;;3.10;89.41
76074;BME280;64776;42.636;24.358;2023-03-01T03:42:40;90458.28;;;3.06;89.16
76074;BME280;64776;42.636;24.358;2023-03-01T03:45:43;90465.66;;;3.11;89.35
76074;BME280;64776;42.636;24.358;2023-03-01T03:48:45;90468.44;;;3.20;89.11
76074;BME280;64776;42.636;24.358;2023-03-01T03:51:46;90471.41;;;3.22;89.35
76074;BME280;64776;42.636;24.358;2023-03-01T03:54:47;90476.50;;;3.29;88.97
76074;BME280;64776;42.636;24.358;2023-03-01T03:57:48;90467.63;;;3.36;89.13
76074;BME280;64776;42.636;24.358;2023-03-01T04:00:52;90472.06;;;3.39;89.10
76074;BME280;64776;42.636;24.358;2023-03-01T04:03:53;90474.63;;;3.43;88.78
76074;BME280;64776;42.636;24.358;2023-03-01T04:06:54;90480.00;;;3.39;88.72
76074;BME280;64776;42.636;24.358;2023-03-01T04:09:55;90484.34;;;3.46;88.36
76074;BME280;64776;42.636;24.358;2023-03-01T04:12:55;90477.38;;;3.52;88.20
76074;BME280;64776;42.636;24.358;2023-03-01T04:15:58;90475.50;;;3.52;87.76
76074;BME280;64776;42.636;24.358;2023-03-01T04:18:59;90474.44;;;3.50;87.58
76074;BME280;64776;42.636;24.358;2023-03-01T04:21:59;90473.91;;;3.55;87.44
76074;BME280;64776;42.636;24.358;2023-03-01T04:25:00;90477.59;;;3.57;88.01
76074;BME280;64776;42.636;24.358;2023-03-01T04:28:01;90482.06;;;3.60;87.67
76074;BME280;64776;42.636;24.358;2023-03-01T04:31:05;90482.44;;;3.59;87.43
76074;BME280;64776;42.636;24.358;2023-03-01T04:34:25;90491.97;;;3.56;87.84
76074;BME280;64776;42.636;24.358;2023-03-01T04:37:26;90488.31;;;3.38;88.31
76074;BME280;64776;42.636;24.358;2023-03-01T04:40:27;90487.03;;;3.29;88.60
76074;BME280;64776;42.636;24.358;2023-03-01T04:43:28;90488.47;;;3.18;88.89
76074;BME280;64776;42.636;24.358;2023-03-01T04:46:30;90485.59;;;3.12;88.86
76074;BME280;64776;42.636;24.358;2023-03-01T04:49:31;90490.03;;;3.15;89.15
76074;BME280;64776;42.636;24.358;2023-03-01T04:52:31;90492.13;;;3.08;89.23
76074;BME280;64776;42.636;24.358;2023-03-01T04:55:33;90487.78;;;3.01;89.25
76074;BME280;64776;42.636;24.358;2023-03-01T04:58:34;90484.81;;;2.99;89.75
76074;BME280;64776;42.636;24.358;2023-03-01T05:01:36;90485.00;;;2.92;89.84
76074;BME280;64776;42.636;24.358;2023-03-01T05:04:37;90475.94;;;2.93;89.79
76074;BME280;64776;42.636;24.358;2023-03-01T05:07:38;90481.94;;;2.94;90.08
76074;BME280;64776;42.636;24.358;2023-03-01T05:10:39;90478.88;;;2.95;89.56
76074;BME280;64776;42.636;24.358;2023-03-01T05:13:40;90489.25;;;3.02;90.01
76074;BME280;64776;42.636;24.358;2023-03-01T05:16:42;90489.44;;;2.95;90.05
76074;BME280;64776;42.636;24.358;2023-03-01T05:19:43;90489.44;;;2.95;90.04
76074;BME280;64776;42.636;24.358;2023-03-01T05:22:43;90487.44;;;2.99;90.05
76074;BME280;64776;42.636;24.358;2023-03-01T05:25:44;90486.47;;;2.93;90.47
76074;BME280;64776;42.636;24.358;2023-03-01T05:28:45;90497.00;;;2.93;90.68
76074;BME280;64776;42.636;24.358;2023-03-01T05:31:47;90496.09;;;3.00;90.26
76074;BME280;64776;42.636;24.358;2023-03-01T05:34:48;90483.16;;;3.05;89.94
76074;BME280;64776;42.636;24.358;2023-03-01T05:37:49;90491.69;;;3.09;89.51
76074;BME280;64776;42.636;24.358;2023-03-01T05:40:51;90481.47;;;3.11;89.61
76074;BME280;64776;42.636;24.358;2023-03-01T05:43:52;90485.78;;;3.05;90.08
76074;BME280;64776;42.636;24.358;2023-03-01T05:46:54;90492.03;;;3.11;89.44
76074;BME280;64776;42.636;24.358;2023-03-01T05:49:55;90494.16;;;3.16;89.53
76074;BME280;64776;42.636;24.358;2023-03-01T05:52:58;90488.88;;;3.16;89.53
76074;BME280;64776;42.636;24.358;2023-03-01T05:56:00;90485.28;;;3.10;89.75
76074;BME280;64776;42.636;24.358;2023-03-01T05:59:04;90497.88;;;3.19;89.60
76074;BME280;64776;42.636;24.358;2023-03-01T06:02:06;90502.28;;;3.22;89.68
76074;BME280;64776;42.636;24.358;2023-03-01T06:05:09;90500.72;;;3.24;90.06
76074;BME280;64776;42.636;24.358;2023-03-01T06:08:11;90495.28;;;3.32;89.15
76074;BME280;64776;42.636;24.358;2023-03-01T06:11:11;90502.75;;;3.33;89.61
76074;BME280;64776;42.636;24.358;2023-03-01T06:14:12;90505.72;;;3.35;89.72
76074;BME280;64776;42.636;24.358;2023-03-01T06:17:15;90509.31;;;3.41;88.85
76074;BME280;64776;42.636;24.358;2023-03-01T06:20:17;90511.84;;;3.45;89.66
76074;BME280;64776;42.636;24.358;2023-03-01T06:23:18;90515.34;;;3.42;89.38
76074;BME280;64776;42.636;24.358;2023-03-01T06:26:19;90512.28;;;3.43;88.91
76074;BME280;64776;42.636;24.358;2023-03-01T06:29:20;90513.25;;;3.49;88.53
76074;BME280;64776;42.636;24.358;2023-03-01T06:32:23;90517.97;;;3.42;89.28
76074;BME280;64776;42.636;24.358;2023-03-01T06:35:23;90518.69;;;3.42;89.85
76074;BME280;64776;42.636;24.358;2023-03-01T06:38:24;90518.94;;;3.48;89.70
76074;BME280;64776;42.636;24.358;2023-03-01T06:41:25;90523.47;;;3.47;89.36
76074;BME280;64776;42.636;24.358;2023-03-01T06:44:26;90518.84;;;3.51;90.07
76074;BME280;64776;42.636;24.358;2023-03-01T06:47:29;90524.22;;;3.48;89.88
76074;BME280;64776;42.636;24.358;2023-03-01T06:50:30;90523.56;;;3.44;89.65
76074;BME280;64776;42.636;24.358;2023-03-01T06:53:31;90519.31;;;3.34;89.65
76074;BME280;64776;42.636;24.358;2023-03-01T06:56:32;90514.34;;;3.23;90.16
76074;BME280;64776;42.636;24.358;2023-03-01T06:59:33;90521.00;;;3.27;89.75
76074;BME280;64776;42.636;24.358;2023-03-01T07:02:35;90515.16;;;3.20;90.92
76074;BME280;64776;42.636;24.358;2023-03-01T07:05:36;90518.22;;;3.18;90.83
76074;BME280;64776;42.636;24.358;2023-03-01T07:08:37;90515.72;;;3.27;90.66
76074;BME280;64776;42.636;24.358;2023-03-01T07:11:37;90517.94;;;3.29;90.52
76074;BME280;64776;42.636;24.358;2023-03-01T07:14:38;90508.22;;;3.26;90.43
76074;BME280;64776;42.636;24.358;2023-03-01T07:17:40;90512.47;;;3.36;90.43
76074;BME280;64776;42.636;24.358;2023-03-01T07:20:41;90510.56;;;3.37;90.37
76074;BME280;64776;42.636;24.358;2023-03-01T07:23:42;90507.28;;;3.33;90.01
76074;BME280;64776;42.636;24.358;2023-03-01T07:26:43;90515.53;;;3.35;90.28
76074;BME280;64776;42.636;24.358;2023-03-01T07:29:44;90513.09;;;3.40;90.71
76074;BME280;64776;42.636;24.358;2023-03-01T07:32:46;90518.81;;;3.39;91.03
76074;BME280;64776;42.636;24.358;2023-03-01T07:35:47;90512.66;;;3.29;90.67
76074;BME280;64776;42.636;24.358;2023-03-01T07:38:47;90512.72;;;3.42;90.71
76074;BME280;64776;42.636;24.358;2023-03-01T07:41:48;90513.84;;;3.41;90.08
76074;BME280;64776;42.636;24.358;2023-03-01T07:44:49;90515.56;;;3.47;90.12
76074;BME280;64776;42.636;24.358;2023-03-01T07:47:52;90513.56;;;3.51;89.83
76074;BME280;64776;42.636;24.358;2023-03-01T07:50:53;90515.78;;;3.53;89.79
76074;BME280;64776;42.636;24.358;2023-03-01T07:53:53;90513.09;;;3.69;89.39
76074;BME280;64776;42.636;24.358;2023-03-01T07:56:56;90512.47;;;3.77;89.79
76074;BME280;64776;42.636;24.358;2023-03-01T07:59:57;90511.75;;;3.77;88.99
76074;BME280;64776;42.636;24.358;2023-03-01T08:53:47;90489.06;;;4.17;88.13
76074;BME280;64776;42.636;24.358;2023-03-01T08:56:48;90490.44;;;4.22;87.61
76074;BME280;64776;42.636;24.358;2023-03-01T08:59:49;90488.84;;;4.24;88.34
76074;BME280;64776;42.636;24.358;2023-03-01T09:02:50;90498.13;;;4.29;87.64
76074;BME280;64776;42.636;24.358;2023-03-01T09:05:51;90503.22;;;4.23;88.42
76074;BME280;64776;42.636;24.358;2023-03-01T09:08:54;90502.38;;;4.26;88.69
76074;BME280;64776;42.636;24.358;2023-03-01T09:11:55;90500.06;;;4.28;88.62
76074;BME280;64776;42.636;24.358;2023-03-01T09:14:55;90508.28;;;4.30;88.55
76074;BME280;64776;42.636;24.358;2023-03-01T09:17:56;90507.22;;;4.40;88.85
76074;BME280;64776;42.636;24.358;2023-03-01T09:21:01;90501.50;;;4.42;87.73
76074;BME280;64776;42.636;24.358;2023-03-01T09:24:04;90509.56;;;4.38;88.04
76074;BME280;64776;42.636;24.358;2023-03-01T09:27:05;90501.63;;;4.38;88.85
76074;BME280;64776;42.636;24.358;2023-03-01T09:30:07;90506.38;;;4.43;88.64
76074;BME280;64776;42.636;24.358;2023-03-01T09:33:08;90502.69;;;4.41;87.67
76074;BME280;64776;42.636;24.358;2023-03-01T09:36:12;90501.00;;;4.47;87.74
76074;BME280;64776;42.636;24.358;2023-03-01T09:39:14;90499.28;;;4.53;88.04
76074;BME280;64776;42.636;24.358;2023-03-01T09:42:15;90491.81;;;4.51;87.82
76074;BME280;64776;42.636;24.358;2023-03-01T09:45:25;90500.53;;;4.61;88.19
76074;BME280;64776;42.636;24.358;2023-03-01T09:48:28;90500.44;;;4.64;88.23
76074;BME280;64776;42.636;24.358;2023-03-01T09:51:35;90501.78;;;4.69;87.16
76074;BME280;64776;42.636;24.358;2023-03-01T09:54:37;90497.03;;;4.64;87.31
76074;BME280;64776;42.636;24.358;2023-03-01T09:57:43;90493.88;;;4.69;86.67
76074;BME280;64776;42.636;24.358;2023-03-01T10:00:48;90489.44;;;4.66;87.59
76074;BME280;64776;42.636;24.358;2023-03-01T10:04:00;90488.59;;;4.56;86.89
76074;BME280;64776;42.636;24.358;2023-03-01T10:07:21;90486.72;;;4.57;87.98
76074;BME280;64776;42.636;24.358;2023-03-01T10:10:28;90477.91;;;4.60;88.24
76074;BME280;64776;42.636;24.358;2023-03-01T10:13:39;90477.81;;;4.63;88.29
76074;BME280;64776;42.636;24.358;2023-03-01T10:16:50;90476.88;;;4.57;88.37
76074;BME280;64776;42.636;24.358;2023-03-01T10:19:53;90467.47;;;4.56;88.25
76074;BME280;64776;42.636;24.358;2023-03-01T10:22:54;90459.44;;;4.47;87.93
76074;BME280;64776;42.636;24.358;2023-03-01T10:26:09;90450.78;;;4.59;88.17
76074;BME280;64776;42.636;24.358;2023-03-01T10:29:13;90454.25;;;4.56;87.71
76074;BME280;64776;42.636;24.358;2023-03-01T10:32:14;90448.34;;;4.52;88.09
76074;BME280;64776;42.636;24.358;2023-03-01T10:35:18;90449.28;;;4.58;87.63
76074;BME280;64776;42.636;24.358;2023-03-01T10:38:19;90449.38;;;4.67;87.08
76074;BME280;64776;42.636;24.358;2023-03-01T10:41:22;90439.75;;;4.73;86.73
76074;BME280;64776;42.636;24.358;2023-03-01T10:44:44;90440.22;;;4.81;86.64
76074;BME280;64776;42.636;24.358;2023-03-01T10:47:45;90433.84;;;4.91;87.01
76074;BME280;64776;42.636;24.358;2023-03-01T10:50:47;90428.66;;;5.00;87.24
76074;BME280;64776;42.636;24.358;2023-03-01T10:53:49;90429.44;;;5.10;86.99
76074;BME280;64776;42.636;24.358;2023-03-01T10:56:53;90426.88;;;5.19;85.76
76074;BME280;64776;42.636;24.358;2023-03-01T11:00:03;90431.06;;;5.29;85.63
76074;BME280;64776;42.636;24.358;2023-03-01T11:03:18;90436.97;;;5.33;85.16
76074;BME280;64776;42.636;24.358;2023-03-01T11:06:21;90425.06;;;5.16;85.15
76074;BME280;64776;42.636;24.358;2023-03-01T11:09:23;90420.19;;;4.92;86.24
76074;BME280;64776;42.636;24.358;2023-03-01T11:12:25;90417.56;;;4.92;87.22
76074;BME280;64776;42.636;24.358;2023-03-01T11:15:27;90408.59;;;4.90;87.19
76074;BME280;64776;42.636;24.358;2023-03-01T11:18:30;90414.91;;;4.71;88.21
76074;BME280;64776;42.636;24.358;2023-03-01T11:21:32;90418.19;;;4.62;88.12
76074;BME280;64776;42.636;24.358;2023-03-01T11:24:40;90409.22;;;4.60;88.30
76074;BME280;64776;42.636;24.358;2023-03-01T11:27:44;90412.09;;;4.53;88.52
76074;BME280;64776;42.636;24.358;2023-03-01T11:30:49;90415.53;;;4.28;88.92
76074;BME280;64776;42.636;24.358;2023-03-01T11:33:55;90418.50;;;4.30;89.60
76074;BME280;64776;42.636;24.358;2023-03-01T11:36:59;90421.22;;;4.39;88.59
76074;BME280;64776;42.636;24.358;2023-03-01T11:40:10;90413.09;;;4.34;88.36
76074;BME280;64776;42.636;24.358;2023-03-01T11:43:19;90405.44;;;4.48;88.98
76074;BME280;64776;42.636;24.358;2023-03-01T11:46:38;90407.78;;;4.46;87.90
76074;BME280;64776;42.636;24.358;2023-03-01T11:49:51;90397.84;;;4.50;88.61
76074;BME280;64776;42.636;24.358;2023-03-01T11:53:05;90382.75;;;4.38;88.67
76074;BME280;64776;42.636;24.358;2023-03-01T11:56:22;90379.81;;;4.36;87.99
76074;BME280;64776;42.636;24.358;2023-03-01T11:59:51;90383.84;;;4.28;88.77
76074;BME280;64776;42.636;24.358;2023-03-01T12:03:13;90385.09;;;4.36;88.50
76074;BME280;64776;42.636;24.358;2023-03-01T12:06:52;90378.41;;;4.44;88.29
76074;BME280;64776;42.636;24.358;2023-03-01T12:10:15;90385.38;;;4.51;87.41
76074;BME280;64776;42.636;24.358;2023-03-01T12:13:34;90375.91;;;4.62;86.94
76074;BME280;64776;42.636;24.358;2023-03-01T12:20:17;90371.13;;;4.70;87.06
76074;BME280;64776;42.636;24.358;2023-03-01T12:23:42;90375.25;;;4.71;85.48
76074;BME280;64776;42.636;24.358;2023-03-01T12:26:55;90368.06;;;4.71;86.55
76074;BME280;64776;42.636;24.358;2023-03-01T12:30:10;90379.56;;;4.77;86.88
76074;BME280;64776;42.636;24.358;2023-03-01T12:33:25;90374.28;;;4.77;86.40
76074;BME280;64776;42.636;24.358;2023-03-01T12:36:56;90378.66;;;4.71;86.58
76074;BME280;64776;42.636;24.358;2023-03-01T12:40:16;90380.72;;;4.76;87.42
76074;BME280;64776;42.636;24.358;2023-03-01T12:43:28;90380.06;;;4.63;87.05
76074;BME280;64776;42.636;24.358;2023-03-01T12:46:45;90379.84;;;4.58;87.72
76074;BME280;64776;42.636;24.358;2023-03-01T12:49:56;90374.47;;;4.61;87.92
76074;BME280;64776;42.636;24.358;2023-03-01T12:52:58;90380.84;;;4.51;88.78
76074;BME280;64776;42.636;24.358;2023-03-01T12:56:01;90379.81;;;4.36;88.74
76074;BME280;64776;42.636;24.358;2023-03-01T12:59:09;90385.00;;;4.27;88.97
76074;BME280;64776;42.636;24.358;2023-03-01T13:02:18;90385.03;;;4.14;88.86
76074;BME280;64776;42.636;24.358;2023-03-01T13:05:33;90385.03;;;4.14;89.04
76074;BME280;64776;42.636;24.358;2023-03-01T13:08:42;90388.22;;;3.97;88.93
76074;BME280;64776;42.636;24.358;2023-03-01T13:11:44;90383.13;;;4.02;89.42
76074;BME280;64776;42.636;24.358;2023-03-01T13:14:45;90375.75;;;4.10;89.02
76074;BME280;64776;42.636;24.358;2023-03-01T13:17:46;90362.00;;;4.15;88.93
76074;BME280;64776;42.636;24.358;2023-03-01T13:20:50;90367.72;;;4.13;88.40
76074;BME280;64776;42.636;24.358;2023-03-01T13:23:51;90370.78;;;4.12;88.07
76074;BME280;64776;42.636;24.358;2023-03-01T13:27:11;90367.38;;;4.24;88.57
76074;BME280;64776;42.636;24.358;2023-03-01T13:30:39;90360.16;;;4.37;88.13
76074;BME280;64776;42.636;24.358;2023-03-01T13:33:43;90352.13;;;4.41;87.47
76074;BME280;64776;42.636;24.358;2023-03-01T13:36:49;90355.47;;;4.41;88.83
76074;BME280;64776;42.636;24.358;2023-03-01T13:39:50;90360.69;;;4.32;89.31
76074;BME280;64776;42.636;24.358;2023-03-01T13:42:51;90363.09;;;4.39;88.76
76074;BME280;64776;42.636;24.358;2023-03-01T13:45:52;90364.34;;;4.47;88.29
76074;BME280;64776;42.636;24.358;2023-03-01T13:48:55;90369.75;;;4.44;88.11
76074;BME280;64776;42.636;24.358;2023-03-01T13:51:58;90363.34;;;4.32;88.60
76074;BME280;64776;42.636;24.358;2023-03-01T13:54:59;90369.50;;;4.17;89.53
76074;BME280;64776;42.636;24.358;2023-03-01T13:58:03;90379.03;;;4.14;90.20
76074;BME280;64776;42.636;24.358;2023-03-01T14:01:06;90381.25;;;4.03;90.07
76074;BME280;64776;42.636;24.358;2023-03-01T14:04:20;90378.41;;;4.10;89.79
76074;BME280;64776;42.636;24.358;2023-03-01T14:07:23;90379.84;;;4.11;90.00
76074;BME280;64776;42.636;24.358;2023-03-01T14:10:31;90369.81;;;4.19;90.12
76074;BME280;64776;42.636;24.358;2023-03-01T14:13:48;90373.63;;;4.18;89.50
76074;BME280;64776;42.636;24.358;2023-03-01T14:17:00;90383.22;;;4.24;89.83
76074;BME280;64776;42.636;24.358;2023-03-01T14:20:12;90389.97;;;4.25;89.73
76074;BME280;64776;42.636;24.358;2023-03-01T14:23:18;90376.97;;;4.31;89.22
76074;BME280;64776;42.636;24.358;2023-03-01T14:26:21;90376.56;;;4.32;88.99
76074;BME280;64776;42.636;24.358;2023-03-01T14:29:27;90359.03;;;4.26;89.59
76074;BME280;64776;42.636;24.358;2023-03-01T14:32:29;90352.03;;;4.32;89.00
76074;BME280;64776;42.636;24.358;2023-03-01T14:35:32;90359.00;;;4.38;88.97
76074;BME280;64776;42.636;24.358;2023-03-01T14:38:36;90366.03;;;4.41;88.17
76074;BME280;64776;42.636;24.358;2023-03-01T14:41:38;90362.38;;;4.39;87.97
76074;BME280;64776;42.636;24.358;2023-03-01T14:44:41;90375.16;;;4.40;87.92
76074;BME280;64776;42.636;24.358;2023-03-01T14:47:44;90375.09;;;4.19;88.35
76074;BME280;64776;42.636;24.358;2023-03-01T14:50:45;90376.06;;;4.12;89.57
76074;BME280;64776;42.636;24.358;2023-03-01T14:53:47;90380.72;;;4.08;90.04
76074;BME280;64776;42.636;24.358;2023-03-01T14:56:48;90381.25;;;4.03;90.31
76074;BME280;64776;42.636;24.358;2023-03-01T14:59:51;90378.81;;;3.96;90.26
76074;BME280;64776;42.636;24.358;2023-03-01T15:02:55;90380.81;;;4.04;89.17
76074;BME280;64776;42.636;24.358;2023-03-01T15:05:56;90390.63;;;4.04;89.41
76074;BME280;64776;42.636;24.358;2023-03-01T15:08:59;90387.69;;;4.02;89.00
76074;BME280;64776;42.636;24.358;2023-03-01T15:11:59;90382.94;;;3.97;90.23
76074;BME280;64776;42.636;24.358;2023-03-01T15:15:00;90385.06;;;3.89;90.31
76074;BME280;64776;42.636;24.358;2023-03-01T15:18:03;90391.31;;;3.83;90.26
76074;BME280;64776;42.636;24.358;2023-03-01T15:21:07;90386.22;;;3.76;90.54
76074;BME280;64776;42.636;24.358;2023-03-01T15:24:17;90390.66;;;3.66;90.37
76074;BME280;64776;42.636;24.358;2023-03-01T15:27:21;90384.34;;;3.64;90.90
76074;BME280;64776;42.636;24.358;2023-03-01T15:30:24;90392.88;;;3.68;90.73
76074;BME280;64776;42.636;24.358;2023-03-01T15:33:31;90386.66;;;3.62;90.68
76074;BME280;64776;42.636;24.358;2023-03-01T15:36:37;90391.94;;;3.62;90.39
76074;BME280;64776;42.636;24.358;2023-03-01T15:39:42;90399.53;;;3.60;90.33
76074;BME280;64776;42.636;24.358;2023-03-01T15:42:42;90400.34;;;3.57;90.16
76074;BME280;64776;42.636;24.358;2023-03-01T15:45:43;90407.53;;;3.44;89.80
76074;BME280;64776;42.636;24.358;2023-03-01T15:48:46;90407.63;;;3.40;90.27
76074;BME280;64776;42.636;24.358;2023-03-01T15:51:47;90407.63;;;3.27;91.48
76074;BME280;64776;42.636;24.358;2023-03-01T15:54:50;90409.38;;;3.18;91.51
76074;BME280;64776;42.636;24.358;2023-03-01T15:57:58;90409.81;;;3.16;91.73
76074;BME280;64776;42.636;24.358;2023-03-01T16:00:59;90408.94;;;3.19;92.49
76074;BME280;64776;42.636;24.358;2023-03-01T16:04:00;90400.31;;;3.19;91.91
76074;BME280;64776;42.636;24.358;2023-03-01T16:07:01;90402.41;;;3.11;92.06
76074;BME280;64776;42.636;24.358;2023-03-01T16:10:04;90394.91;;;3.10;91.89
76074;BME280;64776;42.636;24.358;2023-03-01T16:13:05;90399.25;;;3.16;91.94
76074;BME280;64776;42.636;24.358;2023-03-01T16:16:06;90398.66;;;3.25;91.95
76074;BME280;64776;42.636;24.358;2023-03-01T16:19:08;90401.19;;;3.28;91.60
76074;BME280;64776;42.636;24.358;2023-03-01T16:22:09;90383.56;;;3.25;90.95
76074;BME280;64776;42.636;24.358;2023-03-01T16:25:13;90386.44;;;3.44;91.05
76074;BME280;64776;42.636;24.358;2023-03-01T16:28:14;90397.00;;;3.44;91.01
76074;BME280;64776;42.636;24.358;2023-03-01T16:31:18;90385.50;;;3.50;89.97
76074;BME280;64776;42.636;24.358;2023-03-01T16:34:18;90384.22;;;3.55;89.33
76074;BME280;64776;42.636;24.358;2023-03-01T16:37:19;90377.47;;;3.54;90.31
76074;BME280;64776;42.636;24.358;2023-03-01T16:40:23;90378.09;;;3.45;89.09
76074;BME280;64776;42.636;24.358;2023-03-01T16:43:25;90368.94;;;3.50;89.58
76074;BME280;64776;42.636;24.358;2023-03-01T16:46:27;90369.66;;;3.50;89.17
76074;BME280;64776;42.636;24.358;2023-03-01T16:49:28;90371.66;;;3.34;89.28
76074;BME280;64776;42.636;24.358;2023-03-01T16:52:29;90379.88;;;3.36;90.35
76074;BME280;64776;42.636;24.358;2023-03-01T16:55:31;90376.69;;;3.28;90.52
76074;BME280;64776;42.636;24.358;2023-03-01T16:58:32;90378.34;;;3.09;91.54
76074;BME280;64776;42.636;24.358;2023-03-01T17:01:33;90375.81;;;3.06;91.48
76074;BME280;64776;42.636;24.358;2023-03-01T17:04:34;90369.31;;;3.23;91.65
76074;BME280;64776;42.636;24.358;2023-03-01T17:07:35;90370.50;;;3.35;90.94